createdAt,value
2023-03-08T00:01:20.009Z,98417.20
2023-03-08T00:04:50.149Z,98412.90
2023-03-08T00:08:19.822Z,98417.16
2023-03-08T00:11:49.566Z,98420.52
2023-03-08T00:15:17.018Z,98419.56
2023-03-08T00:18:44.699Z,98432.23
2023-03-08T00:22:13.233Z,98434.29
2023-03-08T00:25:40.985Z,98435.69
2023-03-08T00:29:10.414Z,98430.94
2023-03-08T00:32:37.625Z,98438.99
2023-03-08T00:36:09.134Z,98438.66
2023-03-08T00:39:38.426Z,98437.61
2023-03-08T00:43:06.931Z,98441.17
2023-03-08T00:46:36.367Z,98438.21
2023-03-08T00:50:03.094Z,98440.16
2023-03-08T00:53:30.014Z,98438.48
2023-03-08T00:56:57.053Z,98441.69
2023-03-08T01:00:25.405Z,98440.31
2023-03-08T01:03:52.514Z,98441.40
2023-03-08T01:07:20.051Z,98444.42
2023-03-08T01:10:53.189Z,98445.30
2023-03-08T01:14:20.220Z,98443.91
2023-03-08T01:17:47.253Z,98443.36
2023-03-08T01:21:14.886Z,98444.17
2023-03-08T01:24:45.480Z,98440.27
2023-03-08T01:28:11.953Z,98448.78
2023-03-08T01:31:38.964Z,98450.23
2023-03-08T01:35:06.381Z,98450.35
2023-03-08T01:38:33.250Z,98448.95
2023-03-08T01:42:00.674Z,98452.36
2023-03-08T01:46:09.893Z,98454.84
2023-03-08T01:49:39.147Z,98459.09
2023-03-08T01:53:07.834Z,98458.05
2023-03-08T01:56:35.182Z,98460.48
2023-03-08T02:00:09.140Z,98461.86
2023-03-08T02:03:41.662Z,98460.58
2023-03-08T02:07:09.364Z,98465.74
2023-03-08T02:10:38.994Z,98470.17
2023-03-08T02:14:06.314Z,98475.52
2023-03-08T02:17:37.314Z,98473.65
2023-03-08T02:21:05.742Z,98474.30
2023-03-08T02:24:33.724Z,98483.80
2023-03-08T02:28:00.408Z,98484.92
2023-03-08T02:31:29.627Z,98489.63
2023-03-08T02:34:57.287Z,98494.02
2023-03-08T02:38:25.522Z,98492.02
2023-03-08T02:41:52.122Z,98496.54
2023-03-08T02:45:18.810Z,98504.20
2023-03-08T02:48:47.091Z,98501.66
2023-03-08T02:52:13.963Z,98500.46
2023-03-08T02:55:42.592Z,98506.80
2023-03-08T02:59:10.304Z,98507.84
2023-03-08T03:02:37.623Z,98512.04
2023-03-08T03:06:04.658Z,98514.65
2023-03-08T03:09:32.496Z,98521.36
2023-03-08T03:12:59.749Z,98527.34
2023-03-08T03:16:29.926Z,98527.45
2023-03-08T03:19:57.395Z,98531.70
2023-03-08T03:23:23.936Z,98535.19
2023-03-08T03:26:54.793Z,98537.83
2023-03-08T03:30:23.571Z,98541.39
2023-03-08T03:33:52.066Z,98550.10
2023-03-08T03:37:19.783Z,98560.67
2023-03-08T03:40:46.469Z,98558.81
2023-03-08T03:44:13.379Z,98561.00
2023-03-08T03:47:40.569Z,98568.30
2023-03-08T03:51:11.540Z,98572.20
2023-03-08T03:54:39.357Z,98575.64
2023-03-08T03:58:06.307Z,98578.22
2023-03-08T04:01:35.060Z,98583.07
2023-03-08T04:05:09.235Z,98586.35
2023-03-08T04:08:42.262Z,98586.77
2023-03-08T04:12:08.870Z,98593.03
2023-03-08T04:15:35.934Z,98593.27
2023-03-08T04:19:07.398Z,98597.80
2023-03-08T04:22:34.537Z,98603.52
2023-03-08T04:26:08.584Z,98598.41
2023-03-08T04:29:35.618Z,98598.00
2023-03-08T04:33:03.173Z,98601.85
2023-03-08T04:36:38.128Z,98602.37
2023-03-08T04:40:07.600Z,98603.88
2023-03-08T04:43:36.177Z,98607.48
2023-03-08T04:47:03.996Z,98608.98
2023-03-08T04:50:41.460Z,98610.83
2023-03-08T04:54:09.228Z,98613.70
2023-03-08T04:57:38.850Z,98618.36
2023-03-08T05:01:12.660Z,98622.34
2023-03-08T05:04:41.676Z,98625.70
2023-03-08T05:08:08.860Z,98629.14
2023-03-08T05:11:37.392Z,98634.15
2023-03-08T05:15:05.732Z,98641.35
2023-03-08T05:18:33.070Z,98640.11
2023-03-08T05:22:00.415Z,98645.33
2023-03-08T05:25:27.728Z,98648.86
2023-03-08T05:28:55.189Z,98649.80
2023-03-08T05:32:25.844Z,98653.92
2023-03-08T05:35:58.607Z,98661.00
2023-03-08T05:39:26.699Z,98663.11
2023-03-08T05:42:59.021Z,98665.39
2023-03-08T05:46:26.014Z,98674.09
2023-03-08T05:49:54.304Z,98674.83
2023-03-08T05:53:24.081Z,98681.73
2023-03-08T05:56:52.367Z,98678.87
2023-03-08T06:00:28.008Z,98684.48
2023-03-08T06:03:57.321Z,98691.95
2023-03-08T06:07:26.480Z,98688.89
2023-03-08T06:10:57.105Z,98702.55
2023-03-08T06:14:24.057Z,98707.69
2023-03-08T06:17:53.427Z,98715.00
2023-03-08T06:21:25.132Z,98723.64
2023-03-08T06:24:58.873Z,98724.94
2023-03-08T06:28:31.471Z,98730.13
2023-03-08T06:32:01.669Z,98739.41
2023-03-08T06:35:31.276Z,98745.05
2023-03-08T06:39:01.237Z,98749.59
2023-03-08T06:42:40.727Z,98758.23
2023-03-08T06:46:15.856Z,98761.55
2023-03-08T06:49:44.250Z,98768.80
2023-03-08T06:53:13.127Z,98773.88
2023-03-08T06:56:56.217Z,98779.77
2023-03-08T07:00:25.888Z,98782.60
2023-03-08T07:03:56.485Z,98784.98
2023-03-08T07:07:25.940Z,98787.56
2023-03-08T07:10:54.024Z,98792.27
2023-03-08T07:14:21.207Z,98799.05
2023-03-08T07:17:50.125Z,98806.25
2023-03-08T07:21:17.061Z,98806.84
2023-03-08T07:24:49.305Z,98811.27
2023-03-08T07:28:17.624Z,98812.20
2023-03-08T07:31:45.133Z,98816.54
2023-03-08T07:35:14.732Z,98820.30
2023-03-08T07:38:42.986Z,98818.67
2023-03-08T07:42:11.546Z,98826.20
2023-03-08T07:45:41.855Z,98835.86
2023-03-08T07:49:11.990Z,98837.23
2023-03-08T07:52:39.216Z,98844.14
2023-03-08T07:56:08.108Z,98852.36
2023-03-08T07:59:36.186Z,98850.84
2023-03-08T08:03:03.319Z,98851.24
2023-03-08T08:06:30.712Z,98850.11
2023-03-08T08:09:57.603Z,98854.11
2023-03-08T08:13:24.739Z,98855.90
2023-03-08T08:16:52.075Z,98861.73
2023-03-08T08:20:20.860Z,98863.80
2023-03-08T08:23:48.331Z,98863.56
2023-03-08T08:27:15.479Z,98869.49
2023-03-08T08:30:42.875Z,98871.80
2023-03-08T08:34:10.066Z,98876.24
2023-03-08T08:37:37.278Z,98871.79
2023-03-08T08:41:05.256Z,98875.20
2023-03-08T08:44:32.703Z,98875.06
2023-03-08T08:47:59.761Z,98878.58
2023-03-08T08:51:27.435Z,98879.41
2023-03-08T08:54:55.269Z,98873.92
2023-03-08T08:58:22.088Z,98877.77
2023-03-08T09:01:49.261Z,98869.30
2023-03-08T09:05:16.943Z,98873.83
2023-03-08T09:08:44.263Z,98869.29
2023-03-08T09:12:12.055Z,98871.46
2023-03-08T09:15:39.481Z,98870.04
2023-03-08T09:19:07.203Z,98873.86
2023-03-08T09:22:33.915Z,98875.58
2023-03-08T09:26:02.580Z,98873.38
2023-03-08T09:29:29.846Z,98876.55
2023-03-08T09:32:56.786Z,98880.23
2023-03-08T09:36:25.080Z,98883.11
2023-03-08T09:39:54.023Z,98887.73
2023-03-08T09:43:31.785Z,98889.85
2023-03-08T09:47:04.996Z,98885.42
2023-03-08T09:50:45.885Z,98881.52
2023-03-08T09:54:18.635Z,98883.25
2023-03-08T09:57:53.562Z,98888.95
2023-03-08T10:01:32.298Z,98884.70
2023-03-08T10:05:13.705Z,98886.73
2023-03-08T10:08:50.153Z,98888.07
2023-03-08T10:12:24.892Z,98888.01
2023-03-08T10:15:57.833Z,98890.29
2023-03-08T10:19:29.130Z,98895.21
2023-03-08T10:22:59.764Z,98896.72
2023-03-08T10:26:29.524Z,98899.50
2023-03-08T10:29:58.619Z,98897.05
2023-03-08T10:33:31.143Z,98893.70
2023-03-08T10:37:06.632Z,98892.17
2023-03-08T10:40:33.634Z,98893.80
2023-03-08T10:44:01.603Z,98893.32
2023-03-08T10:47:31.777Z,98898.44
2023-03-08T10:51:17.131Z,98905.77
2023-03-08T10:54:44.757Z,98906.14
2023-03-08T10:58:35.100Z,98908.73
2023-03-08T11:02:03.750Z,98901.85
2023-03-08T11:05:30.949Z,98901.42
2023-03-08T11:09:00.761Z,98890.27
2023-03-08T11:12:33.219Z,98895.04
2023-03-08T11:16:22.793Z,98892.23
2023-03-08T11:20:14.975Z,98890.49
2023-03-08T11:23:50.578Z,98889.02
2023-03-08T11:27:31.702Z,98888.89
2023-03-08T11:31:15.395Z,98888.98
2023-03-08T11:34:57.150Z,98887.12
2023-03-08T11:38:28.313Z,98889.92
2023-03-08T11:42:01.048Z,98894.60
2023-03-08T11:45:36.008Z,98889.16
2023-03-08T11:49:18.722Z,98885.39
2023-03-08T11:52:54.125Z,98891.49
2023-03-08T11:56:45.749Z,98891.00
2023-03-08T12:00:25.015Z,98890.26
2023-03-08T12:03:55.656Z,98891.86
2023-03-08T12:07:29.896Z,98886.35
2023-03-08T12:11:02.113Z,98884.71
2023-03-08T12:14:32.039Z,98886.11
2023-03-08T12:18:05.469Z,98886.90
2023-03-08T12:21:40.221Z,98883.77
2023-03-08T12:25:14.778Z,98883.84
2023-03-08T12:28:47.910Z,98882.23
2023-03-08T12:32:16.008Z,98885.82
2023-03-08T12:35:54.078Z,98887.32
2023-03-08T12:39:35.210Z,98880.06
2023-03-08T12:43:11.152Z,98878.63
2023-03-08T12:47:03.002Z,98873.62
2023-03-08T12:50:32.209Z,98872.55
2023-03-08T12:54:05.541Z,98870.13
2023-03-08T12:57:35.020Z,98871.96
2023-03-08T13:01:06.041Z,98867.64
2023-03-08T13:04:43.068Z,98863.46
2023-03-08T13:08:28.801Z,98860.51
2023-03-08T13:12:03.411Z,98859.96
2023-03-08T13:15:30.217Z,98852.45
2023-03-08T13:19:18.737Z,98853.71
2023-03-08T13:23:02.805Z,98857.05
2023-03-08T13:26:50.995Z,98849.79
2023-03-08T13:30:26.995Z,98845.16
2023-03-08T13:33:55.911Z,98845.69
2023-03-08T13:37:28.188Z,98845.98
2023-03-08T13:40:56.633Z,98838.03
2023-03-08T13:44:27.099Z,98838.90
2023-03-08T13:47:55.049Z,98837.91
2023-03-08T13:51:25.249Z,98832.69
2023-03-08T13:54:55.767Z,98833.61
2023-03-08T13:58:32.398Z,98830.77
2023-03-08T14:01:59.985Z,98827.30
2023-03-08T14:05:29.163Z,98824.70
2023-03-08T14:08:59.665Z,98829.39
2023-03-08T14:12:32.988Z,98830.73
2023-03-08T14:16:02.145Z,98828.64
2023-03-08T14:19:31.501Z,98827.29
2023-03-08T14:23:01.344Z,98819.75
2023-03-08T14:26:35.051Z,98813.98
2023-03-08T14:30:14.386Z,98812.39
2023-03-08T14:33:45.959Z,98811.52
2023-03-08T14:37:24.607Z,98810.91
2023-03-08T14:40:54.709Z,98810.68
2023-03-08T14:44:26.808Z,98805.94
2023-03-08T14:47:58.540Z,98799.45
2023-03-08T14:51:37.013Z,98794.34
2023-03-08T14:55:24.002Z,98792.11
2023-03-08T14:58:54.137Z,98787.67
2023-03-08T15:02:22.305Z,98792.52
2023-03-08T15:05:51.450Z,98793.52
2023-03-08T15:09:23.348Z,98790.96
2023-03-08T15:12:51.025Z,98793.59
2023-03-08T15:16:18.615Z,98796.62
2023-03-08T15:19:45.611Z,98797.39
2023-03-08T15:23:20.849Z,98797.61
2023-03-08T15:26:52.971Z,98798.30
2023-03-08T15:30:23.246Z,98798.61
2023-03-08T15:33:49.797Z,98794.59
2023-03-08T15:37:18.536Z,98796.29
2023-03-08T15:40:46.111Z,98797.52
2023-03-08T15:44:14.090Z,98795.84
2023-03-08T15:47:45.170Z,98795.16
2023-03-08T15:51:20.599Z,98799.73
2023-03-08T15:54:49.845Z,98799.34
2023-03-08T15:58:16.834Z,98798.20
2023-03-08T16:01:43.841Z,98795.15
2023-03-08T16:05:14.265Z,98801.20
2023-03-08T16:08:42.558Z,98802.45
2023-03-08T16:12:09.973Z,98797.98
2023-03-08T16:15:40.408Z,98798.95
2023-03-08T16:19:07.636Z,98803.65
2023-03-08T16:22:35.294Z,98799.64
2023-03-08T16:26:15.292Z,98797.01
2023-03-08T16:29:44.274Z,98798.52
2023-03-08T16:33:11.079Z,98796.54
2023-03-08T16:36:38.568Z,98800.48
2023-03-08T16:40:07.601Z,98798.66
2023-03-08T16:43:45.683Z,98795.93
2023-03-08T16:47:21.199Z,98792.75
2023-03-08T16:50:55.313Z,98796.02
2023-03-08T16:54:27.920Z,98794.31
2023-03-08T16:57:56.152Z,98796.45
2023-03-08T17:01:23.736Z,98792.23
2023-03-08T17:04:52.532Z,98788.95
2023-03-08T17:08:20.135Z,98785.86
2023-03-08T17:11:47.230Z,98782.88
2023-03-08T17:15:15.872Z,98782.65
2023-03-08T17:18:45.070Z,98783.60
2023-03-08T17:22:13.889Z,98782.66
2023-03-08T17:25:46.677Z,98785.40
2023-03-08T17:29:14.633Z,98784.63
2023-03-08T17:32:43.423Z,98785.89
2023-03-08T17:36:14.009Z,98787.04
2023-03-08T17:39:41.854Z,98783.35
2023-03-08T17:43:09.500Z,98784.27
2023-03-08T17:46:38.495Z,98781.31
2023-03-08T17:50:06.790Z,98776.77
2023-03-08T17:53:35.192Z,98773.86
2023-03-08T17:57:04.880Z,98771.51
2023-03-08T18:00:33.360Z,98773.64
2023-03-08T18:04:02.171Z,98764.84
2023-03-08T18:07:29.888Z,98763.73
2023-03-08T18:10:58.125Z,98757.77
2023-03-08T18:14:37.758Z,98755.29
2023-03-08T18:18:10.024Z,98750.64
2023-03-08T18:21:41.262Z,98745.89
2023-03-08T18:25:09.352Z,98739.20
2023-03-08T18:28:37.270Z,98734.09
2023-03-08T18:32:06.111Z,98738.02
2023-03-08T18:35:40.482Z,98737.20
2023-03-08T18:39:15.468Z,98735.31
2023-03-08T18:42:43.721Z,98730.85
2023-03-08T18:46:13.221Z,98732.49
2023-03-08T18:49:41.985Z,98729.52
2023-03-08T18:53:09.344Z,98728.76
2023-03-08T18:56:37.613Z,98729.92
2023-03-08T19:00:11.169Z,98734.61
2023-03-08T19:03:38.389Z,98736.05
2023-03-08T19:07:06.255Z,98734.15
2023-03-08T19:10:33.609Z,98733.55
2023-03-08T19:14:01.686Z,98736.48
2023-03-08T19:17:29.118Z,98736.35
2023-03-08T19:20:55.912Z,98738.25
2023-03-08T19:24:27.078Z,98736.59
2023-03-08T19:27:54.213Z,98741.77
2023-03-08T19:31:21.804Z,98741.29
2023-03-08T19:34:49.506Z,98736.98
2023-03-08T19:38:19.063Z,98738.15
2023-03-08T19:41:48.872Z,98738.09
2023-03-08T19:45:17.706Z,98735.33
2023-03-08T19:48:47.607Z,98732.14
2023-03-08T19:52:16.097Z,98732.58
2023-03-08T19:55:53.782Z,98733.23
2023-03-08T19:59:25.185Z,98732.95
2023-03-08T20:03:06.673Z,98728.05
2023-03-08T20:06:43.488Z,98729.73
2023-03-08T20:10:21.963Z,98728.11
2023-03-08T20:13:51.887Z,98725.08
2023-03-08T20:17:20.208Z,98723.48
2023-03-08T20:20:48.555Z,98724.77
2023-03-08T20:24:18.568Z,98728.48
2023-03-08T20:27:47.442Z,98730.83
2023-03-08T20:31:28.028Z,98729.37
2023-03-08T20:35:00.285Z,98734.26
2023-03-08T20:38:28.907Z,98733.66
2023-03-08T20:41:59.125Z,98730.67
2023-03-08T20:45:27.640Z,98729.23
2023-03-08T20:49:08.382Z,98730.04
2023-03-08T20:52:36.863Z,98729.05
2023-03-08T20:56:11.701Z,98727.41
2023-03-08T20:59:42.136Z,98726.01
2023-03-08T21:03:09.475Z,98720.77
2023-03-08T21:06:38.001Z,98716.38
2023-03-08T21:10:06.090Z,98722.45
2023-03-08T21:13:36.021Z,98714.15
2023-03-08T21:17:07.150Z,98711.77
2023-03-08T21:20:39.627Z,98709.23
2023-03-08T21:24:14.378Z,98714.75
2023-03-08T21:27:41.919Z,98708.59
2023-03-08T21:31:14.691Z,98701.13
2023-03-08T21:34:42.305Z,98700.80
2023-03-08T21:38:10.262Z,98703.02
2023-03-08T21:41:39.913Z,98702.17
2023-03-08T21:45:15.511Z,98696.54
2023-03-08T21:48:42.319Z,98693.08
2023-03-08T21:52:09.762Z,98695.98
2023-03-08T21:55:40.679Z,98693.91
2023-03-08T21:59:09.981Z,98693.16
2023-03-08T22:02:44.797Z,98683.41
2023-03-08T22:06:12.035Z,98687.56
2023-03-08T22:09:38.737Z,98683.69
2023-03-08T22:13:05.714Z,98681.85
2023-03-08T22:16:38.065Z,98681.86
2023-03-08T22:20:08.135Z,98677.02
2023-03-08T22:23:37.968Z,98677.69
2023-03-08T22:27:06.687Z,98678.86
2023-03-08T22:30:33.965Z,98679.27
2023-03-08T22:34:01.585Z,98680.08
2023-03-08T22:37:30.580Z,98681.70
2023-03-08T22:40:58.102Z,98688.13
2023-03-08T22:44:26.027Z,98689.57
2023-03-08T22:47:54.159Z,98692.34
2023-03-08T22:51:24.605Z,98698.84
2023-03-08T22:54:51.538Z,98699.13
2023-03-08T22:58:19.637Z,98700.59
2023-03-08T23:01:47.223Z,98706.61
2023-03-08T23:05:17.309Z,98706.05
2023-03-08T23:08:44.393Z,98698.16
2023-03-08T23:12:12.114Z,98696.31
2023-03-08T23:16:12.836Z,98695.53
2023-03-08T23:19:54.273Z,98689.20
2023-03-08T23:28:24.372Z,98692.48
2023-03-08T23:31:54.520Z,98695.26
2023-03-08T23:35:24.645Z,98693.08
2023-03-08T23:38:53.995Z,98695.16
2023-03-08T23:42:21.661Z,98685.66
2023-03-08T23:45:50.892Z,98688.89
2023-03-08T23:49:20.354Z,98694.63
2023-03-08T23:52:48.637Z,98694.67
2023-03-08T23:56:26.856Z,98695.35
2023-03-08T23:59:54.835Z,98692.17
